BAW730 EGLL-LSZH
Flight info
| Callsign | BAW730 |
|---|---|
| Flight time | N/A |
| Altitude | 29000 |
| Route | DET L6 DVR UL9 KONAN DCT KOK DCT SISGA DCT RITAX DCT KRH M150 LAMGO/N0417F270 T721 SUL/N0405F250 T721 RILAX |
| Aircraft | A319/M-SDE3FGHIRWY/LB1 |
Departure
| Time | 2026-05-05 18:49 |
|---|---|
| Airport | London Heathrow Airport (EGLL) |
Arrival
| Time | N/A |
|---|---|
| Airport | Zürich Airport (LSZH) |
| Time | Latitude | Longitude | Altitude | Speed | Heading |
|---|---|---|---|---|---|
| 2026-05-05 18:28 | 51.46931 | -0.48715 | 86 ft | 0 kts | 359° |
| 2026-05-05 18:37 | 51.46920 | -0.48715 | 86 ft | 4 kts | 359° |
| 2026-05-05 18:37 | 51.46898 | -0.48715 | 88 ft | 2 kts | 359° |
| 2026-05-05 18:38 | 51.46881 | -0.48718 | 88 ft | 4 kts | 58° |
| 2026-05-05 18:38 | 51.46876 | -0.48755 | 87 ft | 4 kts | 89° |
| 2026-05-05 18:38 | 51.46876 | -0.48792 | 89 ft | 1 kts | 89° |
| 2026-05-05 18:38 | 51.46876 | -0.48793 | 89 ft | 0 kts | 89° |
| 2026-05-05 18:42 | 51.46876 | -0.48786 | 86 ft | 2 kts | 91° |
| 2026-05-05 18:42 | 51.46860 | -0.48752 | 90 ft | 5 kts | 154° |
| 2026-05-05 18:42 | 51.46820 | -0.48751 | 86 ft | 0 kts | 180° |
| 2026-05-05 18:44 | 51.46806 | -0.48751 | 86 ft | 3 kts | 179° |
| 2026-05-05 18:44 | 51.46778 | -0.48750 | 86 ft | 6 kts | 179° |
| 2026-05-05 18:44 | 51.46729 | -0.48748 | 86 ft | 8 kts | 178° |
| 2026-05-05 18:45 | 51.46663 | -0.48747 | 86 ft | 10 kts | 179° |
| 2026-05-05 18:45 | 51.46600 | -0.48767 | 90 ft | 6 kts | 198° |
| 2026-05-05 18:45 | 51.46597 | -0.48768 | 89 ft | 0 kts | 198° |
| 2026-05-05 18:46 | 51.46575 | -0.48780 | 87 ft | 6 kts | 198° |
| 2026-05-05 18:46 | 51.46516 | -0.48777 | 88 ft | 11 kts | 157° |
| 2026-05-05 18:46 | 51.46478 | -0.48655 | 86 ft | 13 kts | 90° |
| 2026-05-05 18:46 | 51.46478 | -0.48637 | 86 ft | 0 kts | 89° |
| 2026-05-05 18:48 | 51.46480 | -0.48359 | 87 ft | 56 kts | 89° |
| 2026-05-05 18:49 | 51.46481 | -0.47417 | 86 ft | 114 kts | 90° |
| 2026-05-05 18:49 | 51.46489 | -0.45878 | 96 ft | 163 kts | 88° |
| 2026-05-05 18:49 | 51.46504 | -0.44038 | 690 ft | 163 kts | 86° |
| 2026-05-05 18:49 | 51.46509 | -0.42211 | 1388 ft | 168 kts | 92° |
| 2026-05-05 18:50 | 51.45980 | -0.40394 | 1683 ft | 197 kts | 127° |
| 2026-05-05 18:50 | 51.45106 | -0.38529 | 2049 ft | 222 kts | 121° |
| 2026-05-05 18:50 | 51.44246 | -0.36316 | 2580 ft | 246 kts | 118° |
| 2026-05-05 18:50 | 51.43531 | -0.33746 | 3356 ft | 258 kts | 101° |
| 2026-05-05 18:51 | 51.43144 | -0.30947 | 4361 ft | 262 kts | 100° |
| 2026-05-05 18:51 | 51.42735 | -0.28055 | 5377 ft | 267 kts | 100° |
| 2026-05-05 18:51 | 51.42325 | -0.25118 | 5828 ft | 271 kts | 100° |
| 2026-05-05 18:51 | 51.41919 | -0.22153 | 6503 ft | 275 kts | 100° |
| 2026-05-05 18:52 | 51.41510 | -0.19143 | 7436 ft | 278 kts | 100° |
| 2026-05-05 18:52 | 51.41093 | -0.16087 | 8329 ft | 283 kts | 100° |
| 2026-05-05 18:52 | 51.40673 | -0.13008 | 9226 ft | 289 kts | 101° |
| 2026-05-05 18:52 | 51.40254 | -0.09821 | 10069 ft | 295 kts | 100° |
| 2026-05-05 18:53 | 51.39844 | -0.06476 | 10405 ft | 318 kts | 99° |
| 2026-05-05 18:53 | 51.39419 | -0.02880 | 10778 ft | 336 kts | 99° |
| 2026-05-05 18:53 | 51.38982 | 0.00828 | 11507 ft | 341 kts | 99° |
| 2026-05-05 18:53 | 51.38536 | 0.04575 | 12316 ft | 344 kts | 100° |
| 2026-05-05 18:54 | 51.38080 | 0.08354 | 13098 ft | 347 kts | 100° |
| 2026-05-05 18:54 | 51.37617 | 0.12163 | 13854 ft | 351 kts | 100° |
| 2026-05-05 18:54 | 51.37146 | 0.16017 | 14537 ft | 354 kts | 100° |
| 2026-05-05 18:54 | 51.36671 | 0.19894 | 15221 ft | 357 kts | 100° |
| 2026-05-05 18:55 | 51.36189 | 0.23813 | 15907 ft | 360 kts | 100° |
| 2026-05-05 18:55 | 51.35704 | 0.27757 | 16581 ft | 363 kts | 100° |
| 2026-05-05 18:55 | 51.35381 | 0.30379 | 17035 ft | 366 kts | 100° |
| 2026-05-05 18:55 | 51.34883 | 0.34400 | 17707 ft | 369 kts | 100° |
| 2026-05-05 18:56 | 51.34381 | 0.38439 | 18355 ft | 372 kts | 100° |
| 2026-05-05 18:56 | 51.33872 | 0.42517 | 18937 ft | 376 kts | 100° |
| 2026-05-05 18:56 | 51.33355 | 0.46639 | 19516 ft | 379 kts | 100° |
| 2026-05-05 18:56 | 51.32834 | 0.50790 | 20119 ft | 382 kts | 100° |
| 2026-05-05 18:57 | 51.32310 | 0.54967 | 20845 ft | 385 kts | 100° |
| 2026-05-05 18:57 | 51.31782 | 0.59186 | 21416 ft | 388 kts | 100° |
| 2026-05-05 18:57 | 51.31244 | 0.63440 | 21970 ft | 392 kts | 100° |
| 2026-05-05 18:57 | 51.30698 | 0.67727 | 22510 ft | 395 kts | 101° |
| 2026-05-05 18:58 | 51.30147 | 0.72037 | 23034 ft | 399 kts | 100° |
| 2026-05-05 18:58 | 51.29585 | 0.76406 | 23542 ft | 403 kts | 100° |
| 2026-05-05 18:58 | 51.29019 | 0.80816 | 23969 ft | 406 kts | 101° |
| 2026-05-05 18:58 | 51.28453 | 0.85238 | 24405 ft | 408 kts | 101° |
| 2026-05-05 18:59 | 51.27881 | 0.89697 | 24843 ft | 411 kts | 101° |
| 2026-05-05 18:59 | 51.27304 | 0.94174 | 25255 ft | 413 kts | 102° |
| 2026-05-05 18:59 | 51.26720 | 0.98678 | 25691 ft | 415 kts | 102° |
| 2026-05-05 18:59 | 51.26132 | 1.03208 | 26128 ft | 418 kts | 102° |
| 2026-05-05 19:00 | 51.25541 | 1.07757 | 26577 ft | 420 kts | 102° |
| 2026-05-05 19:00 | 51.24944 | 1.12334 | 27028 ft | 422 kts | 102° |
| 2026-05-05 19:00 | 51.24341 | 1.16929 | 27469 ft | 424 kts | 103° |
| 2026-05-05 19:00 | 51.23732 | 1.21543 | 27922 ft | 426 kts | 103° |
| 2026-05-05 19:01 | 51.23117 | 1.26163 | 28364 ft | 428 kts | 103° |
| 2026-05-05 19:01 | 51.22495 | 1.30822 | 28779 ft | 430 kts | 103° |
| 2026-05-05 19:01 | 51.21870 | 1.35498 | 29204 ft | 432 kts | 104° |
| 2026-05-05 19:01 | 51.21242 | 1.40196 | 29618 ft | 434 kts | 103° |
| 2026-05-05 19:02 | 51.20613 | 1.44917 | 29985 ft | 437 kts | 104° |
| 2026-05-05 19:02 | 51.19979 | 1.49670 | 30312 ft | 439 kts | 105° |
| 2026-05-05 19:02 | 51.19337 | 1.54433 | 30645 ft | 440 kts | 104° |
| 2026-05-05 19:02 | 51.18688 | 1.59216 | 30968 ft | 442 kts | 104° |
| 2026-05-05 19:03 | 51.18036 | 1.64009 | 31313 ft | 443 kts | 104° |
| 2026-05-05 19:03 | 51.17382 | 1.68803 | 31705 ft | 443 kts | 104° |
| 2026-05-05 19:03 | 51.16728 | 1.73587 | 32168 ft | 441 kts | 104° |
| 2026-05-05 19:03 | 51.16081 | 1.78293 | 32654 ft | 438 kts | 104° |
| 2026-05-05 19:04 | 51.15421 | 1.83081 | 33163 ft | 436 kts | 104° |
| 2026-05-05 19:04 | 51.14770 | 1.87786 | 33647 ft | 434 kts | 104° |
| 2026-05-05 19:04 | 51.14120 | 1.92465 | 34085 ft | 432 kts | 105° |
| 2026-05-05 19:04 | 51.13472 | 1.97134 | 34443 ft | 432 kts | 105° |
| 2026-05-05 19:05 | 51.12968 | 2.01866 | 34741 ft | 436 kts | 98° |
| 2026-05-05 19:05 | 51.12711 | 2.06678 | 35037 ft | 437 kts | 97° |
| 2026-05-05 19:05 | 51.12454 | 2.11511 | 35309 ft | 439 kts | 97° |
| 2026-05-05 19:05 | 51.12198 | 2.16360 | 35573 ft | 440 kts | 97° |
| 2026-05-05 19:06 | 51.11942 | 2.21218 | 35844 ft | 441 kts | 97° |
| 2026-05-05 19:06 | 51.11688 | 2.26027 | 36110 ft | 442 kts | 97° |
| 2026-05-05 19:06 | 51.11425 | 2.30913 | 36359 ft | 444 kts | 97° |
| 2026-05-05 19:06 | 51.11153 | 2.35809 | 36611 ft | 445 kts | 97° |
| 2026-05-05 19:07 | 51.10876 | 2.40720 | 36829 ft | 446 kts | 97° |
| 2026-05-05 19:07 | 51.10594 | 2.45642 | 36908 ft | 447 kts | 98° |
| 2026-05-05 19:07 | 51.10029 | 2.55503 | 36912 ft | 447 kts | 97° |
| 2026-05-05 19:08 | 51.09071 | 2.65218 | 36906 ft | 443 kts | 110° |
| 2026-05-05 19:08 | 51.06528 | 2.74059 | 36907 ft | 439 kts | 120° |
| 2026-05-05 19:09 | 51.03674 | 2.82642 | 36918 ft | 439 kts | 120° |
| 2026-05-05 19:09 | 51.00825 | 2.91231 | 36912 ft | 439 kts | 120° |
| 2026-05-05 19:10 | 50.97968 | 2.99806 | 36914 ft | 439 kts | 120° |
| 2026-05-05 19:10 | 50.95100 | 3.08356 | 36909 ft | 439 kts | 120° |
| 2026-05-05 19:11 | 50.92230 | 3.16889 | 36899 ft | 439 kts | 120° |
| 2026-05-05 19:11 | 50.89356 | 3.25428 | 36891 ft | 439 kts | 120° |
| 2026-05-05 19:12 | 50.86478 | 3.33947 | 36886 ft | 439 kts | 120° |
| 2026-05-05 19:12 | 50.83583 | 3.42459 | 36883 ft | 439 kts | 121° |
| 2026-05-05 19:13 | 50.80687 | 3.50944 | 36886 ft | 438 kts | 120° |
| 2026-05-05 19:13 | 50.77793 | 3.59403 | 36887 ft | 438 kts | 120° |
| 2026-05-05 19:14 | 50.74897 | 3.67861 | 36889 ft | 437 kts | 120° |
| 2026-05-05 19:14 | 50.71999 | 3.76285 | 36878 ft | 437 kts | 121° |
| 2026-05-05 19:15 | 50.69086 | 3.84702 | 36879 ft | 437 kts | 121° |
| 2026-05-05 19:15 | 50.66173 | 3.93108 | 36882 ft | 437 kts | 121° |
| 2026-05-05 19:16 | 50.63252 | 4.01509 | 36883 ft | 436 kts | 121° |
| 2026-05-05 19:16 | 50.60396 | 4.09945 | 36873 ft | 437 kts | 118° |
| 2026-05-05 19:17 | 50.57819 | 4.18619 | 36871 ft | 437 kts | 116° |
| 2026-05-05 19:17 | 50.55319 | 4.27339 | 36871 ft | 437 kts | 116° |
| 2026-05-05 19:18 | 50.52770 | 4.35942 | 36871 ft | 436 kts | 117° |
| 2026-05-05 19:18 | 50.50159 | 4.44541 | 36868 ft | 436 kts | 117° |
| 2026-05-05 19:19 | 50.47532 | 4.53124 | 36867 ft | 436 kts | 117° |
| 2026-05-05 19:19 | 50.44919 | 4.61697 | 36864 ft | 436 kts | 117° |
| 2026-05-05 19:20 | 50.42312 | 4.70278 | 36848 ft | 436 kts | 117° |
| 2026-05-05 19:20 | 50.39696 | 4.78840 | 36850 ft | 435 kts | 118° |
| 2026-05-05 19:21 | 50.37067 | 4.87397 | 36852 ft | 435 kts | 118° |
| 2026-05-05 19:21 | 50.34437 | 4.95930 | 36854 ft | 435 kts | 118° |
| 2026-05-05 19:22 | 50.31792 | 5.04451 | 36847 ft | 435 kts | 118° |
| 2026-05-05 19:22 | 50.29143 | 5.12960 | 36840 ft | 435 kts | 118° |
| 2026-05-05 19:23 | 50.26499 | 5.21446 | 36846 ft | 434 kts | 118° |
| 2026-05-05 19:23 | 50.23850 | 5.29913 | 36846 ft | 434 kts | 118° |
| 2026-05-05 19:24 | 50.21196 | 5.38371 | 36845 ft | 433 kts | 118° |
| 2026-05-05 19:24 | 50.18540 | 5.46809 | 36839 ft | 433 kts | 118° |
| 2026-05-05 19:25 | 50.15882 | 5.55230 | 36819 ft | 433 kts | 118° |
| 2026-05-05 19:25 | 50.13212 | 5.63640 | 36823 ft | 433 kts | 118° |
| 2026-05-05 19:26 | 50.10532 | 5.72044 | 36820 ft | 433 kts | 118° |
| 2026-05-05 19:26 | 50.07845 | 5.80423 | 36819 ft | 432 kts | 119° |
| 2026-05-05 19:27 | 50.04987 | 5.88578 | 36820 ft | 432 kts | 122° |
| 2026-05-05 19:27 | 50.01927 | 5.96612 | 36798 ft | 432 kts | 123° |
| 2026-05-05 19:28 | 49.98850 | 6.04650 | 36807 ft | 433 kts | 122° |
| 2026-05-05 19:28 | 49.95809 | 6.12746 | 36803 ft | 434 kts | 122° |
| 2026-05-05 19:29 | 49.92785 | 6.20849 | 36796 ft | 434 kts | 122° |
| 2026-05-05 19:29 | 49.89747 | 6.28953 | 36790 ft | 434 kts | 122° |
| 2026-05-05 19:30 | 49.86693 | 6.37025 | 36769 ft | 435 kts | 122° |
| 2026-05-05 19:30 | 49.83629 | 6.45101 | 36790 ft | 435 kts | 122° |
| 2026-05-05 19:31 | 49.80558 | 6.53188 | 36788 ft | 435 kts | 122° |
| 2026-05-05 19:31 | 49.77484 | 6.61255 | 36793 ft | 435 kts | 122° |
| 2026-05-05 19:32 | 49.74392 | 6.69325 | 36793 ft | 436 kts | 123° |
| 2026-05-05 19:32 | 49.71298 | 6.77379 | 36792 ft | 436 kts | 123° |
| 2026-05-05 19:33 | 49.68199 | 6.85446 | 36772 ft | 437 kts | 123° |
| 2026-05-05 19:33 | 49.65091 | 6.93510 | 36787 ft | 437 kts | 123° |
| 2026-05-05 19:34 | 49.61967 | 7.01565 | 36792 ft | 437 kts | 123° |
| 2026-05-05 19:35 | 49.57297 | 7.13572 | 36807 ft | 437 kts | 123° |
| 2026-05-05 19:35 | 49.54148 | 7.21650 | 36798 ft | 437 kts | 123° |
| 2026-05-05 19:36 | 49.51011 | 7.29666 | 36807 ft | 437 kts | 124° |
| 2026-05-05 19:36 | 49.47886 | 7.37627 | 36801 ft | 438 kts | 124° |
| 2026-05-05 19:37 | 49.44738 | 7.45640 | 36807 ft | 438 kts | 124° |
| 2026-05-05 19:37 | 49.41576 | 7.53641 | 36797 ft | 438 kts | 124° |
| 2026-05-05 19:38 | 49.38398 | 7.61625 | 36782 ft | 438 kts | 124° |
| 2026-05-05 19:38 | 49.35227 | 7.69612 | 36795 ft | 438 kts | 124° |
| 2026-05-05 19:39 | 49.32571 | 7.76287 | 36805 ft | 438 kts | 124° |
| 2026-05-05 19:39 | 49.29397 | 7.84242 | 36813 ft | 438 kts | 124° |
| 2026-05-05 19:40 | 49.26237 | 7.92146 | 36820 ft | 437 kts | 124° |
| 2026-05-05 19:40 | 49.23045 | 8.00068 | 36793 ft | 438 kts | 124° |
| 2026-05-05 19:41 | 49.19843 | 8.07996 | 36798 ft | 438 kts | 125° |
| 2026-05-05 19:41 | 49.16638 | 8.15928 | 36804 ft | 439 kts | 125° |
| 2026-05-05 19:42 | 49.13425 | 8.23857 | 36812 ft | 439 kts | 125° |
| 2026-05-05 19:42 | 49.11813 | 8.27815 | 36601 ft | 440 kts | 125° |
| 2026-05-05 19:42 | 49.10200 | 8.31779 | 36338 ft | 439 kts | 125° |
| 2026-05-05 19:42 | 49.08593 | 8.35724 | 36084 ft | 438 kts | 125° |
| 2026-05-05 19:43 | 49.06977 | 8.39681 | 35851 ft | 438 kts | 125° |
| 2026-05-05 19:43 | 49.05366 | 8.43610 | 35593 ft | 437 kts | 125° |
| 2026-05-05 19:43 | 49.03751 | 8.47542 | 35344 ft | 437 kts | 125° |
| 2026-05-05 19:43 | 49.02142 | 8.51452 | 35029 ft | 436 kts | 125° |
| 2026-05-05 19:44 | 49.00522 | 8.55391 | 34230 ft | 441 kts | 124° |
| 2026-05-05 19:44 | 48.98806 | 8.59253 | 33365 ft | 442 kts | 130° |
| 2026-05-05 19:44 | 48.96843 | 8.62845 | 32852 ft | 437 kts | 132° |
| 2026-05-05 19:44 | 48.94904 | 8.66376 | 32331 ft | 432 kts | 132° |
| 2026-05-05 19:45 | 48.92969 | 8.69832 | 31815 ft | 427 kts | 136° |
| 2026-05-05 19:45 | 48.90722 | 8.72690 | 31475 ft | 415 kts | 148° |
| 2026-05-05 19:45 | 48.88193 | 8.74705 | 31002 ft | 408 kts | 160° |
| 2026-05-05 19:45 | 48.85481 | 8.75845 | 30487 ft | 404 kts | 172° |
| 2026-05-05 19:46 | 48.82694 | 8.76120 | 29979 ft | 400 kts | 182° |
| 2026-05-05 19:46 | 48.79942 | 8.75589 | 29421 ft | 397 kts | 190° |
| 2026-05-05 19:46 | 48.77243 | 8.74856 | 28910 ft | 392 kts | 190° |
| 2026-05-05 19:46 | 48.74574 | 8.74140 | 28429 ft | 387 kts | 190° |
| 2026-05-05 19:47 | 48.71931 | 8.73437 | 27935 ft | 383 kts | 190° |
| 2026-05-05 19:47 | 48.69321 | 8.72746 | 27468 ft | 379 kts | 190° |
| 2026-05-05 19:47 | 48.66733 | 8.72059 | 26999 ft | 375 kts | 190° |
| 2026-05-05 19:47 | 48.64173 | 8.71375 | 26544 ft | 372 kts | 190° |
| 2026-05-05 19:48 | 48.61628 | 8.70697 | 26104 ft | 369 kts | 190° |
| 2026-05-05 19:48 | 48.59109 | 8.70030 | 25667 ft | 367 kts | 190° |
| 2026-05-05 19:48 | 48.56599 | 8.69366 | 25257 ft | 365 kts | 190° |
| 2026-05-05 19:48 | 48.54108 | 8.68708 | 24842 ft | 362 kts | 189° |
| 2026-05-05 19:49 | 48.51640 | 8.68050 | 24431 ft | 359 kts | 189° |
| 2026-05-05 19:49 | 48.49219 | 8.67404 | 24041 ft | 356 kts | 189° |
| 2026-05-05 19:49 | 48.46786 | 8.66760 | 23638 ft | 354 kts | 189° |
| 2026-05-05 19:49 | 48.44337 | 8.66115 | 23184 ft | 351 kts | 189° |
| 2026-05-05 19:50 | 48.41975 | 8.65491 | 22772 ft | 347 kts | 189° |
| 2026-05-05 19:50 | 48.39611 | 8.64865 | 22341 ft | 343 kts | 189° |
| 2026-05-05 19:50 | 48.37273 | 8.64241 | 21901 ft | 339 kts | 190° |
| 2026-05-05 19:50 | 48.34961 | 8.63577 | 21472 ft | 336 kts | 191° |
| 2026-05-05 19:51 | 48.32678 | 8.62885 | 21038 ft | 334 kts | 192° |
| 2026-05-05 19:51 | 48.30402 | 8.62181 | 20455 ft | 335 kts | 192° |
| 2026-05-05 19:51 | 48.28119 | 8.61477 | 20011 ft | 333 kts | 192° |
| 2026-05-05 19:51 | 48.25865 | 8.60784 | 19586 ft | 330 kts | 192° |
| 2026-05-05 19:52 | 48.23619 | 8.60098 | 19162 ft | 328 kts | 192° |
| 2026-05-05 19:52 | 48.21395 | 8.59426 | 18739 ft | 325 kts | 192° |
| 2026-05-05 19:52 | 48.19181 | 8.58761 | 18314 ft | 324 kts | 193° |
| 2026-05-05 19:52 | 48.16973 | 8.58096 | 17925 ft | 328 kts | 193° |
| 2026-05-05 19:53 | 48.14707 | 8.57413 | 17863 ft | 334 kts | 193° |
| 2026-05-05 19:53 | 48.12414 | 8.56728 | 17875 ft | 337 kts | 192° |
| 2026-05-05 19:53 | 48.10116 | 8.56049 | 17872 ft | 336 kts | 193° |
| 2026-05-05 19:53 | 48.07823 | 8.55372 | 17874 ft | 335 kts | 193° |
| 2026-05-05 19:54 | 48.05536 | 8.54693 | 17882 ft | 335 kts | 193° |
| 2026-05-05 19:54 | 48.03255 | 8.54015 | 17882 ft | 335 kts | 193° |
| 2026-05-05 19:54 | 48.00973 | 8.53339 | 17882 ft | 335 kts | 193° |
| 2026-05-05 19:54 | 47.98687 | 8.52663 | 17885 ft | 334 kts | 193° |
| 2026-05-05 19:55 | 47.96369 | 8.52304 | 17884 ft | 337 kts | 180° |
| 2026-05-05 19:55 | 47.94080 | 8.52853 | 17884 ft | 341 kts | 166° |
| 2026-05-05 19:55 | 47.91888 | 8.54376 | 17885 ft | 347 kts | 150° |
| 2026-05-05 19:55 | 47.89976 | 8.56611 | 17887 ft | 350 kts | 143° |
| 2026-05-05 19:56 | 47.88122 | 8.58883 | 17825 ft | 351 kts | 144° |
| 2026-05-05 19:56 | 47.86235 | 8.61180 | 17550 ft | 349 kts | 144° |
| 2026-05-05 19:56 | 47.84358 | 8.63459 | 17282 ft | 348 kts | 144° |
| 2026-05-05 19:56 | 47.82487 | 8.65726 | 17015 ft | 347 kts | 144° |
| 2026-05-05 19:57 | 47.80623 | 8.67983 | 16747 ft | 345 kts | 144° |
| 2026-05-05 19:57 | 47.78756 | 8.70242 | 16509 ft | 344 kts | 144° |
| 2026-05-05 19:57 | 47.76904 | 8.72482 | 16242 ft | 343 kts | 144° |
| 2026-05-05 19:57 | 47.75049 | 8.74723 | 15986 ft | 342 kts | 144° |
| 2026-05-05 19:58 | 47.73206 | 8.76948 | 15733 ft | 341 kts | 144° |
| 2026-05-05 19:58 | 47.71366 | 8.79168 | 15485 ft | 340 kts | 144° |
| 2026-05-05 19:58 | 47.69567 | 8.81343 | 15236 ft | 332 kts | 144° |
| 2026-05-05 19:58 | 47.67810 | 8.83466 | 14975 ft | 323 kts | 145° |
| 2026-05-05 19:59 | 47.66075 | 8.85560 | 14725 ft | 317 kts | 145° |
| 2026-05-05 19:59 | 47.64391 | 8.87592 | 14486 ft | 314 kts | 145° |
| 2026-05-05 19:59 | 47.62720 | 8.89683 | 14243 ft | 315 kts | 139° |
| 2026-05-05 19:59 | 47.61395 | 8.92277 | 14012 ft | 320 kts | 122° |
| 2026-05-05 20:00 | 47.60380 | 8.95186 | 13892 ft | 313 kts | 121° |
| 2026-05-05 20:00 | 47.59419 | 8.97962 | 13898 ft | 298 kts | 121° |
| 2026-05-05 20:00 | 47.58489 | 9.00645 | 13899 ft | 288 kts | 121° |
| 2026-05-05 20:00 | 47.57587 | 9.03277 | 13901 ft | 287 kts | 117° |
| 2026-05-05 20:01 | 47.56985 | 9.06152 | 13900 ft | 290 kts | 105° |
| 2026-05-05 20:01 | 47.56647 | 9.09065 | 13900 ft | 291 kts | 100° |
| 2026-05-05 20:01 | 47.56410 | 9.12045 | 13899 ft | 291 kts | 98° |
| 2026-05-05 20:01 | 47.56201 | 9.15009 | 13899 ft | 291 kts | 98° |
| 2026-05-05 20:02 | 47.55986 | 9.18017 | 13898 ft | 292 kts | 97° |
| 2026-05-05 20:02 | 47.56210 | 9.20986 | 13882 ft | 294 kts | 71° |
| 2026-05-05 20:02 | 47.57210 | 9.23561 | 13598 ft | 291 kts | 45° |
| 2026-05-05 20:02 | 47.58819 | 9.25283 | 13372 ft | 282 kts | 19° |
| 2026-05-05 20:03 | 47.60708 | 9.25892 | 13075 ft | 273 kts | 355° |
| 2026-05-05 20:03 | 47.62523 | 9.25366 | 12748 ft | 264 kts | 332° |
| 2026-05-05 20:03 | 47.64026 | 9.23904 | 12428 ft | 256 kts | 309° |
| 2026-05-05 20:03 | 47.65029 | 9.21787 | 12122 ft | 247 kts | 288° |
| 2026-05-05 20:04 | 47.65439 | 9.19377 | 11832 ft | 239 kts | 269° |
| 2026-05-05 20:04 | 47.65265 | 9.16961 | 11532 ft | 235 kts | 251° |
| 2026-05-05 20:04 | 47.64648 | 9.14986 | 11250 ft | 233 kts | 235° |
| 2026-05-05 20:04 | 47.63529 | 9.13231 | 10859 ft | 237 kts | 219° |
| 2026-05-05 20:05 | 47.62290 | 9.11468 | 10124 ft | 255 kts | 231° |
| 2026-05-05 20:05 | 47.61219 | 9.09309 | 9486 ft | 267 kts | 233° |
| 2026-05-05 20:05 | 47.60146 | 9.07057 | 9069 ft | 267 kts | 234° |
| 2026-05-05 20:05 | 47.59084 | 9.04848 | 8886 ft | 265 kts | 234° |
| 2026-05-05 20:06 | 47.58014 | 9.02636 | 8893 ft | 267 kts | 234° |
| 2026-05-05 20:06 | 47.56918 | 9.00369 | 8900 ft | 267 kts | 234° |
| 2026-05-05 20:06 | 47.55833 | 8.98128 | 8901 ft | 267 kts | 234° |
| 2026-05-05 20:06 | 47.54768 | 8.95928 | 8915 ft | 267 kts | 234° |
| 2026-05-05 20:07 | 47.53688 | 8.93702 | 8913 ft | 267 kts | 234° |
| 2026-05-05 20:07 | 47.52609 | 8.91476 | 8907 ft | 267 kts | 234° |
| 2026-05-05 20:07 | 47.51847 | 8.88989 | 8903 ft | 269 kts | 258° |
| 2026-05-05 20:07 | 47.51965 | 8.86212 | 8914 ft | 275 kts | 285° |
| 2026-05-05 20:08 | 47.52957 | 8.83804 | 8910 ft | 283 kts | 312° |
| 2026-05-05 20:08 | 47.54665 | 8.82187 | 8927 ft | 290 kts | 332° |
| 2026-05-05 20:08 | 47.56509 | 8.81038 | 8907 ft | 291 kts | 334° |
| 2026-05-05 20:08 | 47.58379 | 8.79949 | 8921 ft | 292 kts | 334° |
| 2026-05-05 20:09 | 47.60301 | 8.78898 | 8911 ft | 292 kts | 334° |
| 2026-05-05 20:09 | 47.62053 | 8.77496 | 8914 ft | 283 kts | 313° |
| 2026-05-05 20:09 | 47.63188 | 8.75218 | 8909 ft | 273 kts | 291° |
| 2026-05-05 20:09 | 47.63983 | 8.72680 | 8911 ft | 271 kts | 289° |
| 2026-05-05 20:10 | 47.64678 | 8.70089 | 8909 ft | 267 kts | 278° |
| 2026-05-05 20:10 | 47.64650 | 8.67407 | 8907 ft | 259 kts | 251° |
| 2026-05-05 20:10 | 47.63752 | 8.65144 | 8908 ft | 257 kts | 224° |
| 2026-05-05 20:10 | 47.62191 | 8.63827 | 8912 ft | 263 kts | 197° |
| 2026-05-05 20:11 | 47.60435 | 8.63791 | 8914 ft | 262 kts | 171° |
| 2026-05-05 20:11 | 47.58848 | 8.65048 | 8915 ft | 262 kts | 142° |
| 2026-05-05 20:11 | 47.57865 | 8.67356 | 8915 ft | 268 kts | 111° |
| 2026-05-05 20:11 | 47.57549 | 8.70071 | 8913 ft | 271 kts | 100° |
| 2026-05-05 20:12 | 47.57365 | 8.72870 | 8916 ft | 271 kts | 99° |
| 2026-05-05 20:12 | 47.57201 | 8.75611 | 8916 ft | 272 kts | 98° |
| 2026-05-05 20:12 | 47.57037 | 8.78394 | 8809 ft | 271 kts | 99° |
| 2026-05-05 20:12 | 47.56857 | 8.81169 | 8505 ft | 269 kts | 104° |
| 2026-05-05 20:13 | 47.56134 | 8.83607 | 8279 ft | 254 kts | 134° |
| 2026-05-05 20:13 | 47.54912 | 8.85414 | 8003 ft | 248 kts | 143° |
| 2026-05-05 20:13 | 47.53605 | 8.87115 | 7697 ft | 248 kts | 143° |
| 2026-05-05 20:13 | 47.52324 | 8.88762 | 7404 ft | 248 kts | 144° |
| 2026-05-05 20:14 | 47.51061 | 8.90389 | 7237 ft | 235 kts | 144° |
| 2026-05-05 20:14 | 47.49852 | 8.91958 | 6947 ft | 226 kts | 144° |
| 2026-05-05 20:14 | 47.48539 | 8.93047 | 6586 ft | 204 kts | 181° |